Terminal Aerodrome Forecast
Issued by NWS

Home | Current Version | Previous Version | Graphics & Text | Print | Product List | Glossary On
Versions: 1 2 3 4 5 6 7 8 9 10 11 12 13 14 15 16 17 18
000
FTUS43 KICT 240900 AAD
TAFRSL
TAF AMD
KRSL 240945Z 2410/2506 35013KT P6SM VCSH OVC080
     FM241100 34013KT P6SM OVC080
     FM241400 34022G30KT P6SM OVC080
     FM241700 34022G30KT P6SM SCT100
     FM242300 34013KT P6SM SKC=

USA.gov is the U.S. government's official web portal to all federal, state and local government web resources and services.